sensor_id;sensor_type;location;lat;lon;timestamp;P1;durP1;ratioP1;P2;durP2;ratioP2
76423;SDS011;65257;52.104;4.268;2023-03-01T00:01:12;12.32;;;7.18;;
76423;SDS011;65257;52.104;4.268;2023-03-01T00:03:45;11.85;;;6.32;;
76423;SDS011;65257;52.104;4.268;2023-03-01T00:06:12;10.35;;;5.78;;
76423;SDS011;65257;52.104;4.268;2023-03-01T00:08:39;15.00;;;7.38;;
76423;SDS011;65257;52.104;4.268;2023-03-01T00:13:33;19.10;;;8.73;;
76423;SDS011;65257;52.104;4.268;2023-03-01T00:16:01;15.68;;;7.68;;
76423;SDS011;65257;52.104;4.268;2023-03-01T00:18:34;14.20;;;7.30;;
76423;SDS011;65257;52.104;4.268;2023-03-01T00:21:00;18.98;;;9.07;;
76423;SDS011;65257;52.104;4.268;2023-03-01T00:23:26;14.90;;;7.80;;
76423;SDS011;65257;52.104;4.268;2023-03-01T00:25:52;16.35;;;7.18;;
76423;SDS011;65257;52.104;4.268;2023-03-01T00:28:18;18.00;;;8.35;;
76423;SDS011;65257;52.104;4.268;2023-03-01T00:30:44;15.45;;;7.63;;
76423;SDS011;65257;52.104;4.268;2023-03-01T00:33:10;23.40;;;8.60;;
76423;SDS011;65257;52.104;4.268;2023-03-01T00:35:36;17.58;;;9.00;;
76423;SDS011;65257;52.104;4.268;2023-03-01T00:38:02;20.08;;;8.75;;
76423;SDS011;65257;52.104;4.268;2023-03-01T00:40:29;16.83;;;7.68;;
76423;SDS011;65257;52.104;4.268;2023-03-01T00:42:58;16.55;;;8.05;;
76423;SDS011;65257;52.104;4.268;2023-03-01T00:45:24;18.33;;;8.20;;
76423;SDS011;65257;52.104;4.268;2023-03-01T00:47:50;19.27;;;7.82;;
76423;SDS011;65257;52.104;4.268;2023-03-01T00:50:17;15.00;;;7.82;;
76423;SDS011;65257;52.104;4.268;2023-03-01T00:52:43;19.60;;;8.43;;
76423;SDS011;65257;52.104;4.268;2023-03-01T00:55:10;16.73;;;7.18;;
76423;SDS011;65257;52.104;4.268;2023-03-01T00:57:36;16.00;;;8.52;;
76423;SDS011;65257;52.104;4.268;2023-03-01T01:00:03;15.82;;;8.50;;
76423;SDS011;65257;52.104;4.268;2023-03-01T01:02:29;18.83;;;9.15;;
76423;SDS011;65257;52.104;4.268;2023-03-01T01:04:56;19.60;;;8.82;;
76423;SDS011;65257;52.104;4.268;2023-03-01T01:07:22;16.85;;;8.68;;
76423;SDS011;65257;52.104;4.268;2023-03-01T01:09:47;17.40;;;8.63;;
76423;SDS011;65257;52.104;4.268;2023-03-01T01:12:12;22.67;;;9.32;;
76423;SDS011;65257;52.104;4.268;2023-03-01T01:14:38;20.98;;;9.38;;
76423;SDS011;65257;52.104;4.268;2023-03-01T01:17:03;20.15;;;10.13;;
76423;SDS011;65257;52.104;4.268;2023-03-01T01:19:29;22.27;;;10.32;;
76423;SDS011;65257;52.104;4.268;2023-03-01T01:21:55;24.65;;;11.48;;
76423;SDS011;65257;52.104;4.268;2023-03-01T01:24:21;24.33;;;10.95;;
76423;SDS011;65257;52.104;4.268;2023-03-01T01:26:46;23.20;;;10.88;;
76423;SDS011;65257;52.104;4.268;2023-03-01T01:29:13;25.77;;;12.20;;
76423;SDS011;65257;52.104;4.268;2023-03-01T01:31:40;23.63;;;10.20;;
76423;SDS011;65257;52.104;4.268;2023-03-01T01:34:07;22.23;;;10.80;;
76423;SDS011;65257;52.104;4.268;2023-03-01T01:36:37;22.80;;;11.55;;
76423;SDS011;65257;52.104;4.268;2023-03-01T01:39:02;23.58;;;11.57;;
76423;SDS011;65257;52.104;4.268;2023-03-01T01:41:28;23.20;;;10.43;;
76423;SDS011;65257;52.104;4.268;2023-03-01T01:46:53;28.90;;;13.20;;
76423;SDS011;65257;52.104;4.268;2023-03-01T01:49:29;26.63;;;12.85;;
76423;SDS011;65257;52.104;4.268;2023-03-01T01:54:58;26.17;;;12.60;;
76423;SDS011;65257;52.104;4.268;2023-03-01T01:57:29;27.23;;;12.65;;
76423;SDS011;65257;52.104;4.268;2023-03-01T02:00:07;31.02;;;15.18;;
76423;SDS011;65257;52.104;4.268;2023-03-01T02:02:44;29.33;;;13.63;;
76423;SDS011;65257;52.104;4.268;2023-03-01T02:05:26;36.10;;;14.52;;
76423;SDS011;65257;52.104;4.268;2023-03-01T02:07:58;31.33;;;13.25;;
76423;SDS011;65257;52.104;4.268;2023-03-01T02:10:24;36.40;;;15.88;;
76423;SDS011;65257;52.104;4.268;2023-03-01T02:12:51;30.67;;;13.80;;
76423;SDS011;65257;52.104;4.268;2023-03-01T02:15:17;33.35;;;14.30;;
76423;SDS011;65257;52.104;4.268;2023-03-01T02:17:42;33.58;;;15.25;;
76423;SDS011;65257;52.104;4.268;2023-03-01T02:20:13;35.33;;;15.45;;
76423;SDS011;65257;52.104;4.268;2023-03-01T02:22:52;35.15;;;15.15;;
76423;SDS011;65257;52.104;4.268;2023-03-01T02:25:54;40.35;;;17.80;;
76423;SDS011;65257;52.104;4.268;2023-03-01T02:28:29;34.03;;;16.00;;
76423;SDS011;65257;52.104;4.268;2023-03-01T02:31:00;30.50;;;14.98;;
76423;SDS011;65257;52.104;4.268;2023-03-01T02:33:45;36.45;;;15.65;;
76423;SDS011;65257;52.104;4.268;2023-03-01T02:36:15;33.40;;;16.75;;
76423;SDS011;65257;52.104;4.268;2023-03-01T02:38:48;41.13;;;16.00;;
76423;SDS011;65257;52.104;4.268;2023-03-01T02:41:16;33.00;;;15.75;;
76423;SDS011;65257;52.104;4.268;2023-03-01T02:43:44;42.28;;;15.50;;
76423;SDS011;65257;52.104;4.268;2023-03-01T02:46:17;36.33;;;15.48;;
76423;SDS011;65257;52.104;4.268;2023-03-01T02:48:51;36.88;;;14.77;;
76423;SDS011;65257;52.104;4.268;2023-03-01T02:51:22;37.58;;;17.02;;
76423;SDS011;65257;52.104;4.268;2023-03-01T02:56:46;39.08;;;20.15;;
76423;SDS011;65257;52.104;4.268;2023-03-01T02:59:13;41.45;;;17.15;;
76423;SDS011;65257;52.104;4.268;2023-03-01T03:01:40;43.42;;;17.67;;
76423;SDS011;65257;52.104;4.268;2023-03-01T03:04:07;37.20;;;17.15;;
76423;SDS011;65257;52.104;4.268;2023-03-01T03:06:35;42.08;;;16.35;;
76423;SDS011;65257;52.104;4.268;2023-03-01T03:09:00;40.60;;;19.48;;
76423;SDS011;65257;52.104;4.268;2023-03-01T03:11:26;41.45;;;17.63;;
76423;SDS011;65257;52.104;4.268;2023-03-01T03:13:51;38.67;;;17.33;;
76423;SDS011;65257;52.104;4.268;2023-03-01T03:16:17;38.33;;;16.52;;
76423;SDS011;65257;52.104;4.268;2023-03-01T03:18:43;45.05;;;17.83;;
76423;SDS011;65257;52.104;4.268;2023-03-01T03:21:11;37.80;;;17.77;;
76423;SDS011;65257;52.104;4.268;2023-03-01T03:23:37;37.60;;;17.45;;
76423;SDS011;65257;52.104;4.268;2023-03-01T03:26:03;40.63;;;16.38;;
76423;SDS011;65257;52.104;4.268;2023-03-01T03:28:30;44.08;;;19.88;;
76423;SDS011;65257;52.104;4.268;2023-03-01T03:30:56;39.05;;;19.08;;
76423;SDS011;65257;52.104;4.268;2023-03-01T03:33:23;43.22;;;18.63;;
76423;SDS011;65257;52.104;4.268;2023-03-01T03:35:49;40.85;;;18.55;;
76423;SDS011;65257;52.104;4.268;2023-03-01T03:38:16;35.45;;;15.30;;
76423;SDS011;65257;52.104;4.268;2023-03-01T03:41:03;38.80;;;15.55;;
76423;SDS011;65257;52.104;4.268;2023-03-01T03:43:32;38.53;;;17.08;;
76423;SDS011;65257;52.104;4.268;2023-03-01T03:45:59;41.47;;;17.08;;
76423;SDS011;65257;52.104;4.268;2023-03-01T03:48:30;38.42;;;17.80;;
76423;SDS011;65257;52.104;4.268;2023-03-01T03:50:58;41.20;;;17.23;;
76423;SDS011;65257;52.104;4.268;2023-03-01T03:53:23;43.53;;;18.90;;
76423;SDS011;65257;52.104;4.268;2023-03-01T03:55:50;41.90;;;18.67;;
76423;SDS011;65257;52.104;4.268;2023-03-01T03:58:17;46.95;;;20.25;;
76423;SDS011;65257;52.104;4.268;2023-03-01T04:00:45;42.42;;;18.42;;
76423;SDS011;65257;52.104;4.268;2023-03-01T04:03:13;40.22;;;16.08;;
76423;SDS011;65257;52.104;4.268;2023-03-01T04:05:40;39.92;;;17.17;;
76423;SDS011;65257;52.104;4.268;2023-03-01T04:08:06;47.05;;;19.08;;
76423;SDS011;65257;52.104;4.268;2023-03-01T04:10:45;41.38;;;17.88;;
76423;SDS011;65257;52.104;4.268;2023-03-01T04:13:13;46.00;;;18.70;;
76423;SDS011;65257;52.104;4.268;2023-03-01T04:15:40;40.03;;;16.73;;
76423;SDS011;65257;52.104;4.268;2023-03-01T04:18:08;42.78;;;18.40;;
76423;SDS011;65257;52.104;4.268;2023-03-01T04:20:36;48.13;;;19.85;;
76423;SDS011;65257;52.104;4.268;2023-03-01T04:23:09;43.45;;;17.98;;
76423;SDS011;65257;52.104;4.268;2023-03-01T04:25:49;42.25;;;17.60;;
76423;SDS011;65257;52.104;4.268;2023-03-01T04:28:22;42.28;;;17.40;;
76423;SDS011;65257;52.104;4.268;2023-03-01T04:30:50;45.95;;;19.00;;
76423;SDS011;65257;52.104;4.268;2023-03-01T04:33:16;41.17;;;18.70;;
76423;SDS011;65257;52.104;4.268;2023-03-01T04:35:42;46.30;;;18.13;;
76423;SDS011;65257;52.104;4.268;2023-03-01T04:38:08;42.65;;;17.35;;
76423;SDS011;65257;52.104;4.268;2023-03-01T04:40:33;38.53;;;17.30;;
76423;SDS011;65257;52.104;4.268;2023-03-01T04:42:59;42.38;;;17.55;;
76423;SDS011;65257;52.104;4.268;2023-03-01T04:45:25;48.42;;;18.95;;
76423;SDS011;65257;52.104;4.268;2023-03-01T04:47:50;40.08;;;17.95;;
76423;SDS011;65257;52.104;4.268;2023-03-01T04:50:17;39.22;;;17.05;;
76423;SDS011;65257;52.104;4.268;2023-03-01T04:52:45;37.20;;;16.92;;
76423;SDS011;65257;52.104;4.268;2023-03-01T04:55:11;38.22;;;17.38;;
76423;SDS011;65257;52.104;4.268;2023-03-01T04:57:37;29.77;;;12.95;;
76423;SDS011;65257;52.104;4.268;2023-03-01T05:00:03;39.10;;;16.45;;
76423;SDS011;65257;52.104;4.268;2023-03-01T05:02:45;39.38;;;16.95;;
76423;SDS011;65257;52.104;4.268;2023-03-01T05:05:11;37.30;;;15.63;;
76423;SDS011;65257;52.104;4.268;2023-03-01T05:07:38;40.55;;;19.30;;
76423;SDS011;65257;52.104;4.268;2023-03-01T05:10:03;33.67;;;15.60;;
76423;SDS011;65257;52.104;4.268;2023-03-01T05:12:28;26.95;;;13.05;;
76423;SDS011;65257;52.104;4.268;2023-03-01T05:14:54;36.65;;;17.65;;
76423;SDS011;65257;52.104;4.268;2023-03-01T05:17:19;31.90;;;14.27;;
76423;SDS011;65257;52.104;4.268;2023-03-01T05:19:46;43.08;;;16.98;;
76423;SDS011;65257;52.104;4.268;2023-03-01T05:22:11;36.75;;;16.80;;
76423;SDS011;65257;52.104;4.268;2023-03-01T05:24:36;39.58;;;18.55;;
76423;SDS011;65257;52.104;4.268;2023-03-01T05:27:03;37.72;;;17.15;;
76423;SDS011;65257;52.104;4.268;2023-03-01T05:29:29;42.60;;;19.15;;
76423;SDS011;65257;52.104;4.268;2023-03-01T05:31:59;38.25;;;18.02;;
76423;SDS011;65257;52.104;4.268;2023-03-01T05:34:26;48.95;;;20.80;;
76423;SDS011;65257;52.104;4.268;2023-03-01T05:36:54;42.63;;;18.30;;
76423;SDS011;65257;52.104;4.268;2023-03-01T05:39:20;40.38;;;17.80;;
76423;SDS011;65257;52.104;4.268;2023-03-01T05:41:47;41.28;;;18.48;;
76423;SDS011;65257;52.104;4.268;2023-03-01T05:44:14;37.72;;;16.65;;
76423;SDS011;65257;52.104;4.268;2023-03-01T05:46:40;37.50;;;16.10;;
76423;SDS011;65257;52.104;4.268;2023-03-01T05:49:05;41.78;;;18.88;;
76423;SDS011;65257;52.104;4.268;2023-03-01T05:51:31;31.35;;;14.05;;
76423;SDS011;65257;52.104;4.268;2023-03-01T05:53:57;39.72;;;18.70;;
76423;SDS011;65257;52.104;4.268;2023-03-01T05:56:22;44.35;;;17.48;;
76423;SDS011;65257;52.104;4.268;2023-03-01T05:58:48;43.63;;;17.88;;
76423;SDS011;65257;52.104;4.268;2023-03-01T06:01:14;45.33;;;20.38;;
76423;SDS011;65257;52.104;4.268;2023-03-01T06:03:40;46.53;;;19.70;;
76423;SDS011;65257;52.104;4.268;2023-03-01T06:06:05;43.78;;;19.70;;
76423;SDS011;65257;52.104;4.268;2023-03-01T06:08:31;42.60;;;18.80;;
76423;SDS011;65257;52.104;4.268;2023-03-01T06:10:56;51.25;;;21.25;;
76423;SDS011;65257;52.104;4.268;2023-03-01T06:13:22;41.40;;;19.30;;
76423;SDS011;65257;52.104;4.268;2023-03-01T06:15:48;40.95;;;18.48;;
76423;SDS011;65257;52.104;4.268;2023-03-01T06:18:14;40.15;;;17.70;;
76423;SDS011;65257;52.104;4.268;2023-03-01T06:20:39;45.63;;;19.55;;
76423;SDS011;65257;52.104;4.268;2023-03-01T06:23:04;43.70;;;18.92;;
76423;SDS011;65257;52.104;4.268;2023-03-01T06:25:30;42.40;;;18.08;;
76423;SDS011;65257;52.104;4.268;2023-03-01T06:27:55;44.40;;;18.48;;
76423;SDS011;65257;52.104;4.268;2023-03-01T06:30:22;46.13;;;18.80;;
76423;SDS011;65257;52.104;4.268;2023-03-01T06:32:48;45.58;;;18.27;;
76423;SDS011;65257;52.104;4.268;2023-03-01T06:35:15;43.97;;;17.63;;
76423;SDS011;65257;52.104;4.268;2023-03-01T06:37:44;44.88;;;17.38;;
76423;SDS011;65257;52.104;4.268;2023-03-01T06:40:11;35.00;;;15.40;;
76423;SDS011;65257;52.104;4.268;2023-03-01T06:42:39;37.08;;;16.75;;
76423;SDS011;65257;52.104;4.268;2023-03-01T06:45:09;33.33;;;15.57;;
76423;SDS011;65257;52.104;4.268;2023-03-01T06:47:35;38.58;;;15.80;;
76423;SDS011;65257;52.104;4.268;2023-03-01T06:50:00;29.33;;;14.45;;
76423;SDS011;65257;52.104;4.268;2023-03-01T06:52:26;28.92;;;13.75;;
76423;SDS011;65257;52.104;4.268;2023-03-01T06:54:52;30.45;;;13.48;;
76423;SDS011;65257;52.104;4.268;2023-03-01T06:57:17;34.97;;;14.18;;
76423;SDS011;65257;52.104;4.268;2023-03-01T06:59:43;26.85;;;12.95;;
76423;SDS011;65257;52.104;4.268;2023-03-01T07:02:11;31.98;;;13.32;;
76423;SDS011;65257;52.104;4.268;2023-03-01T07:04:38;27.88;;;12.90;;
76423;SDS011;65257;52.104;4.268;2023-03-01T07:07:03;26.52;;;12.32;;
76423;SDS011;65257;52.104;4.268;2023-03-01T07:09:29;24.42;;;12.13;;
76423;SDS011;65257;52.104;4.268;2023-03-01T07:11:55;23.15;;;11.55;;
76423;SDS011;65257;52.104;4.268;2023-03-01T07:14:21;28.88;;;12.35;;
76423;SDS011;65257;52.104;4.268;2023-03-01T07:16:46;28.02;;;13.00;;
76423;SDS011;65257;52.104;4.268;2023-03-01T07:19:12;23.40;;;12.15;;
76423;SDS011;65257;52.104;4.268;2023-03-01T07:21:37;22.40;;;10.45;;
76423;SDS011;65257;52.104;4.268;2023-03-01T07:24:05;20.33;;;10.45;;
76423;SDS011;65257;52.104;4.268;2023-03-01T07:26:31;23.67;;;11.45;;
76423;SDS011;65257;52.104;4.268;2023-03-01T07:28:58;24.20;;;11.48;;
76423;SDS011;65257;52.104;4.268;2023-03-01T07:31:26;22.55;;;11.38;;
76423;SDS011;65257;52.104;4.268;2023-03-01T07:33:53;21.00;;;10.68;;
76423;SDS011;65257;52.104;4.268;2023-03-01T07:36:23;10.73;;;6.15;;
76423;SDS011;65257;52.104;4.268;2023-03-01T07:38:50;13.15;;;7.45;;
76423;SDS011;65257;52.104;4.268;2023-03-01T07:41:16;9.25;;;5.70;;
76423;SDS011;65257;52.104;4.268;2023-03-01T07:43:42;13.02;;;5.35;;
76423;SDS011;65257;52.104;4.268;2023-03-01T07:46:08;7.20;;;3.67;;
76423;SDS011;65257;52.104;4.268;2023-03-01T07:48:34;10.45;;;5.78;;
76423;SDS011;65257;52.104;4.268;2023-03-01T07:51:01;12.50;;;7.13;;
76423;SDS011;65257;52.104;4.268;2023-03-01T07:53:31;11.07;;;5.60;;
76423;SDS011;65257;52.104;4.268;2023-03-01T07:56:11;13.02;;;6.15;;
76423;SDS011;65257;52.104;4.268;2023-03-01T07:58:38;12.45;;;6.80;;
76423;SDS011;65257;52.104;4.268;2023-03-01T08:01:05;12.65;;;6.82;;
76423;SDS011;65257;52.104;4.268;2023-03-01T08:03:32;14.25;;;7.60;;
76423;SDS011;65257;52.104;4.268;2023-03-01T08:05:59;16.27;;;8.55;;
76423;SDS011;65257;52.104;4.268;2023-03-01T08:08:25;16.92;;;8.25;;
76423;SDS011;65257;52.104;4.268;2023-03-01T08:10:51;16.95;;;9.15;;
76423;SDS011;65257;52.104;4.268;2023-03-01T08:13:16;16.38;;;9.50;;
76423;SDS011;65257;52.104;4.268;2023-03-01T08:15:47;16.48;;;9.55;;
76423;SDS011;65257;52.104;4.268;2023-03-01T08:18:12;19.60;;;10.88;;
76423;SDS011;65257;52.104;4.268;2023-03-01T08:20:38;16.95;;;9.55;;
76423;SDS011;65257;52.104;4.268;2023-03-01T08:23:03;16.95;;;9.70;;
76423;SDS011;65257;52.104;4.268;2023-03-01T08:25:28;19.33;;;12.32;;
76423;SDS011;65257;52.104;4.268;2023-03-01T08:27:54;22.65;;;11.05;;
76423;SDS011;65257;52.104;4.268;2023-03-01T08:30:19;20.20;;;10.93;;
76423;SDS011;65257;52.104;4.268;2023-03-01T08:32:45;19.15;;;10.70;;
76423;SDS011;65257;52.104;4.268;2023-03-01T08:35:10;19.52;;;10.77;;
76423;SDS011;65257;52.104;4.268;2023-03-01T08:37:36;19.38;;;10.95;;
76423;SDS011;65257;52.104;4.268;2023-03-01T08:40:01;19.27;;;10.95;;
76423;SDS011;65257;52.104;4.268;2023-03-01T08:42:28;17.50;;;10.52;;
76423;SDS011;65257;52.104;4.268;2023-03-01T08:44:54;20.90;;;11.23;;
76423;SDS011;65257;52.104;4.268;2023-03-01T08:47:21;18.95;;;10.95;;
76423;SDS011;65257;52.104;4.268;2023-03-01T08:49:48;18.27;;;10.95;;
76423;SDS011;65257;52.104;4.268;2023-03-01T08:52:15;18.27;;;11.82;;
76423;SDS011;65257;52.104;4.268;2023-03-01T08:54:41;19.63;;;11.90;;
76423;SDS011;65257;52.104;4.268;2023-03-01T08:57:06;20.35;;;11.13;;
76423;SDS011;65257;52.104;4.268;2023-03-01T08:59:32;19.58;;;10.77;;
76423;SDS011;65257;52.104;4.268;2023-03-01T09:02:02;16.60;;;8.73;;
76423;SDS011;65257;52.104;4.268;2023-03-01T09:04:28;17.92;;;9.30;;
76423;SDS011;65257;52.104;4.268;2023-03-01T09:06:53;18.80;;;10.88;;
76423;SDS011;65257;52.104;4.268;2023-03-01T09:09:18;21.88;;;11.30;;
76423;SDS011;65257;52.104;4.268;2023-03-01T09:11:44;21.20;;;11.68;;
76423;SDS011;65257;52.104;4.268;2023-03-01T09:14:11;16.42;;;7.97;;
76423;SDS011;65257;52.104;4.268;2023-03-01T09:16:37;17.42;;;11.07;;
76423;SDS011;65257;52.104;4.268;2023-03-01T09:19:04;18.98;;;12.10;;
76423;SDS011;65257;52.104;4.268;2023-03-01T09:21:30;19.35;;;11.90;;
76423;SDS011;65257;52.104;4.268;2023-03-01T09:23:57;18.90;;;11.63;;
76423;SDS011;65257;52.104;4.268;2023-03-01T09:26:23;19.38;;;11.18;;
76423;SDS011;65257;52.104;4.268;2023-03-01T09:28:50;18.83;;;10.57;;
76423;SDS011;65257;52.104;4.268;2023-03-01T09:31:19;17.85;;;12.60;;
76423;SDS011;65257;52.104;4.268;2023-03-01T09:33:46;16.85;;;11.05;;
76423;SDS011;65257;52.104;4.268;2023-03-01T09:36:14;17.90;;;12.00;;
76423;SDS011;65257;52.104;4.268;2023-03-01T09:38:42;20.02;;;11.93;;
76423;SDS011;65257;52.104;4.268;2023-03-01T09:43:49;18.20;;;11.63;;
76423;SDS011;65257;52.104;4.268;2023-03-01T09:46:22;18.67;;;11.18;;
76423;SDS011;65257;52.104;4.268;2023-03-01T09:48:56;17.67;;;12.60;;
76423;SDS011;65257;52.104;4.268;2023-03-01T09:51:31;18.98;;;11.55;;
76423;SDS011;65257;52.104;4.268;2023-03-01T09:53:59;15.90;;;10.48;;
76423;SDS011;65257;52.104;4.268;2023-03-01T10:04:58;15.38;;;9.50;;
76423;SDS011;65257;52.104;4.268;2023-03-01T10:09:56;13.10;;;8.80;;
76423;SDS011;65257;52.104;4.268;2023-03-01T10:12:24;15.30;;;9.10;;
76423;SDS011;65257;52.104;4.268;2023-03-01T10:14:55;13.85;;;8.60;;
76423;SDS011;65257;52.104;4.268;2023-03-01T10:19:53;15.18;;;9.32;;
76423;SDS011;65257;52.104;4.268;2023-03-01T10:22:22;12.77;;;9.00;;
76423;SDS011;65257;52.104;4.268;2023-03-01T10:24:53;14.50;;;8.55;;
76423;SDS011;65257;52.104;4.268;2023-03-01T10:27:23;12.32;;;7.88;;
76423;SDS011;65257;52.104;4.268;2023-03-01T10:33:01;9.77;;;6.40;;
76423;SDS011;65257;52.104;4.268;2023-03-01T10:35:28;12.10;;;7.10;;
76423;SDS011;65257;52.104;4.268;2023-03-01T10:37:58;11.57;;;6.65;;
76423;SDS011;65257;52.104;4.268;2023-03-01T10:40:52;11.43;;;6.45;;
76423;SDS011;65257;52.104;4.268;2023-03-01T10:43:19;8.98;;;5.82;;
76423;SDS011;65257;52.104;4.268;2023-03-01T10:45:45;12.32;;;5.65;;
76423;SDS011;65257;52.104;4.268;2023-03-01T10:48:12;11.23;;;7.18;;
76423;SDS011;65257;52.104;4.268;2023-03-01T10:50:47;10.35;;;5.95;;
76423;SDS011;65257;52.104;4.268;2023-03-01T10:53:22;12.57;;;6.70;;
76423;SDS011;65257;52.104;4.268;2023-03-01T10:56:01;10.27;;;6.75;;
76423;SDS011;65257;52.104;4.268;2023-03-01T10:58:38;9.68;;;5.88;;
76423;SDS011;65257;52.104;4.268;2023-03-01T11:03:39;9.48;;;6.68;;
76423;SDS011;65257;52.104;4.268;2023-03-01T11:08:45;15.10;;;8.85;;
76423;SDS011;65257;52.104;4.268;2023-03-01T11:11:14;10.63;;;6.50;;
76423;SDS011;65257;52.104;4.268;2023-03-01T11:13:52;10.30;;;6.60;;
76423;SDS011;65257;52.104;4.268;2023-03-01T11:16:27;10.15;;;6.07;;
76423;SDS011;65257;52.104;4.268;2023-03-01T11:18:59;10.43;;;5.82;;
76423;SDS011;65257;52.104;4.268;2023-03-01T11:24:29;9.02;;;6.20;;
76423;SDS011;65257;52.104;4.268;2023-03-01T11:27:12;13.30;;;8.10;;
76423;SDS011;65257;52.104;4.268;2023-03-01T11:29:43;10.75;;;7.00;;
76423;SDS011;65257;52.104;4.268;2023-03-01T11:32:12;10.43;;;7.15;;
76423;SDS011;65257;52.104;4.268;2023-03-01T11:37:32;10.98;;;7.03;;
76423;SDS011;65257;52.104;4.268;2023-03-01T11:45:14;11.68;;;8.10;;
76423;SDS011;65257;52.104;4.268;2023-03-01T11:50:26;17.42;;;9.23;;
76423;SDS011;65257;52.104;4.268;2023-03-01T11:55:46;18.20;;;9.60;;
76423;SDS011;65257;52.104;4.268;2023-03-01T12:11:55;11.77;;;7.65;;
76423;SDS011;65257;52.104;4.268;2023-03-01T12:20:02;12.73;;;7.68;;
76423;SDS011;65257;52.104;4.268;2023-03-01T12:22:43;14.23;;;8.02;;
76423;SDS011;65257;52.104;4.268;2023-03-01T12:27:57;12.05;;;7.72;;
76423;SDS011;65257;52.104;4.268;2023-03-01T12:33:19;11.23;;;7.50;;
76423;SDS011;65257;52.104;4.268;2023-03-01T12:39:04;13.15;;;8.63;;
76423;SDS011;65257;52.104;4.268;2023-03-01T12:44:12;15.60;;;8.10;;
76423;SDS011;65257;52.104;4.268;2023-03-01T12:55:31;11.88;;;7.15;;
76423;SDS011;65257;52.104;4.268;2023-03-01T12:58:34;9.82;;;5.97;;
76423;SDS011;65257;52.104;4.268;2023-03-01T13:09:28;11.18;;;7.45;;
76423;SDS011;65257;52.104;4.268;2023-03-01T13:11:59;11.15;;;6.93;;
76423;SDS011;65257;52.104;4.268;2023-03-01T13:16:50;12.40;;;7.35;;
76423;SDS011;65257;52.104;4.268;2023-03-01T13:19:18;14.07;;;7.82;;
76423;SDS011;65257;52.104;4.268;2023-03-01T13:21:46;11.80;;;7.85;;
76423;SDS011;65257;52.104;4.268;2023-03-01T13:32:33;13.35;;;8.75;;
76423;SDS011;65257;52.104;4.268;2023-03-01T13:35:40;13.60;;;7.70;;
76423;SDS011;65257;52.104;4.268;2023-03-01T13:37:52;12.45;;;7.95;;
76423;SDS011;65257;52.104;4.268;2023-03-01T13:40:57;12.85;;;8.35;;
76423;SDS011;65257;52.104;4.268;2023-03-01T13:46:00;16.77;;;9.32;;
76423;SDS011;65257;52.104;4.268;2023-03-01T13:48:42;14.57;;;7.40;;
76423;SDS011;65257;52.104;4.268;2023-03-01T13:51:50;14.98;;;8.43;;
76423;SDS011;65257;52.104;4.268;2023-03-01T13:54:20;12.25;;;7.28;;
76423;SDS011;65257;52.104;4.268;2023-03-01T13:56:59;14.20;;;8.25;;
76423;SDS011;65257;52.104;4.268;2023-03-01T13:59:26;15.18;;;8.18;;
76423;SDS011;65257;52.104;4.268;2023-03-01T14:01:52;12.48;;;6.38;;
76423;SDS011;65257;52.104;4.268;2023-03-01T14:06:50;14.07;;;7.47;;
76423;SDS011;65257;52.104;4.268;2023-03-01T14:09:17;11.88;;;7.35;;
76423;SDS011;65257;52.104;4.268;2023-03-01T14:20:17;12.48;;;6.38;;
76423;SDS011;65257;52.104;4.268;2023-03-01T14:22:45;14.38;;;6.93;;
76423;SDS011;65257;52.104;4.268;2023-03-01T14:30:41;13.43;;;7.30;;
76423;SDS011;65257;52.104;4.268;2023-03-01T14:36:05;10.88;;;5.95;;
76423;SDS011;65257;52.104;4.268;2023-03-01T14:38:34;13.27;;;7.07;;
76423;SDS011;65257;52.104;4.268;2023-03-01T14:41:10;12.27;;;6.88;;
76423;SDS011;65257;52.104;4.268;2023-03-01T14:43:41;14.38;;;6.47;;
76423;SDS011;65257;52.104;4.268;2023-03-01T14:46:20;10.32;;;5.68;;
76423;SDS011;65257;52.104;4.268;2023-03-01T14:48:52;12.88;;;6.65;;
76423;SDS011;65257;52.104;4.268;2023-03-01T14:51:21;12.88;;;6.30;;
76423;SDS011;65257;52.104;4.268;2023-03-01T14:53:47;12.85;;;6.65;;
76423;SDS011;65257;52.104;4.268;2023-03-01T14:56:13;11.48;;;5.35;;
76423;SDS011;65257;52.104;4.268;2023-03-01T14:58:40;11.98;;;6.18;;
76423;SDS011;65257;52.104;4.268;2023-03-01T15:01:05;13.10;;;6.00;;
76423;SDS011;65257;52.104;4.268;2023-03-01T15:03:38;12.02;;;6.15;;
76423;SDS011;65257;52.104;4.268;2023-03-01T15:06:08;10.63;;;6.25;;
76423;SDS011;65257;52.104;4.268;2023-03-01T15:08:37;9.57;;;5.60;;
76423;SDS011;65257;52.104;4.268;2023-03-01T15:13:43;12.02;;;6.07;;
76423;SDS011;65257;52.104;4.268;2023-03-01T15:16:15;11.88;;;5.95;;
76423;SDS011;65257;52.104;4.268;2023-03-01T15:19:06;10.48;;;5.32;;
76423;SDS011;65257;52.104;4.268;2023-03-01T15:21:34;10.85;;;5.45;;
76423;SDS011;65257;52.104;4.268;2023-03-01T15:26:49;10.13;;;5.18;;
76423;SDS011;65257;52.104;4.268;2023-03-01T15:29:20;11.75;;;5.88;;
76423;SDS011;65257;52.104;4.268;2023-03-01T15:34:29;10.57;;;5.45;;
76423;SDS011;65257;52.104;4.268;2023-03-01T15:36:57;9.43;;;5.20;;
76423;SDS011;65257;52.104;4.268;2023-03-01T15:39:32;9.73;;;5.13;;
76423;SDS011;65257;52.104;4.268;2023-03-01T15:42:50;9.55;;;5.57;;
76423;SDS011;65257;52.104;4.268;2023-03-01T15:47:49;14.13;;;6.03;;
76423;SDS011;65257;52.104;4.268;2023-03-01T15:50:36;11.65;;;5.70;;
76423;SDS011;65257;52.104;4.268;2023-03-01T15:53:06;10.45;;;6.65;;
76423;SDS011;65257;52.104;4.268;2023-03-01T15:55:36;15.50;;;5.68;;
76423;SDS011;65257;52.104;4.268;2023-03-01T16:00:29;8.65;;;4.90;;
76423;SDS011;65257;52.104;4.268;2023-03-01T16:02:55;8.60;;;4.93;;
76423;SDS011;65257;52.104;4.268;2023-03-01T16:05:22;13.50;;;6.00;;
76423;SDS011;65257;52.104;4.268;2023-03-01T16:07:50;11.13;;;4.88;;
76423;SDS011;65257;52.104;4.268;2023-03-01T16:10:16;11.18;;;5.50;;
76423;SDS011;65257;52.104;4.268;2023-03-01T16:12:42;12.15;;;5.22;;
76423;SDS011;65257;52.104;4.268;2023-03-01T16:15:29;13.20;;;6.40;;
76423;SDS011;65257;52.104;4.268;2023-03-01T16:17:58;11.10;;;4.95;;
76423;SDS011;65257;52.104;4.268;2023-03-01T16:20:24;11.65;;;6.10;;
76423;SDS011;65257;52.104;4.268;2023-03-01T16:22:50;9.02;;;5.00;;
76423;SDS011;65257;52.104;4.268;2023-03-01T16:25:16;11.32;;;6.22;;
76423;SDS011;65257;52.104;4.268;2023-03-01T16:27:44;9.55;;;5.32;;
76423;SDS011;65257;52.104;4.268;2023-03-01T16:30:12;12.05;;;5.28;;
76423;SDS011;65257;52.104;4.268;2023-03-01T16:32:43;11.63;;;5.07;;
76423;SDS011;65257;52.104;4.268;2023-03-01T16:35:10;8.45;;;5.03;;
76423;SDS011;65257;52.104;4.268;2023-03-01T16:37:37;9.73;;;5.90;;
76423;SDS011;65257;52.104;4.268;2023-03-01T16:40:04;10.75;;;5.82;;
76423;SDS011;65257;52.104;4.268;2023-03-01T16:42:44;10.52;;;5.53;;
76423;SDS011;65257;52.104;4.268;2023-03-01T16:45:09;9.73;;;4.97;;
76423;SDS011;65257;52.104;4.268;2023-03-01T16:47:35;10.52;;;4.53;;
76423;SDS011;65257;52.104;4.268;2023-03-01T16:50:00;7.55;;;4.65;;
76423;SDS011;65257;52.104;4.268;2023-03-01T16:52:26;8.57;;;5.07;;
76423;SDS011;65257;52.104;4.268;2023-03-01T16:54:52;11.07;;;5.32;;
76423;SDS011;65257;52.104;4.268;2023-03-01T16:57:17;9.40;;;5.15;;
76423;SDS011;65257;52.104;4.268;2023-03-01T16:59:43;10.30;;;4.95;;
76423;SDS011;65257;52.104;4.268;2023-03-01T17:02:12;7.05;;;4.80;;
76423;SDS011;65257;52.104;4.268;2023-03-01T17:04:39;16.60;;;5.95;;